createdAt,value
2023-01-29T00:02:46.679Z,98514.71
2023-01-29T00:05:49.753Z,98518.17
2023-01-29T00:08:52.698Z,98517.45
2023-01-29T00:11:55.573Z,98520.63
2023-01-29T00:14:58.566Z,98525.06
2023-01-29T00:18:01.482Z,98524.80
2023-01-29T00:21:04.494Z,98520.43
2023-01-29T00:24:07.582Z,98521.23
2023-01-29T00:27:11.212Z,98529.61
2023-01-29T00:30:16.532Z,98530.46
2023-01-29T00:33:19.516Z,98526.85
2023-01-29T00:36:23.396Z,98532.77
2023-01-29T00:39:31.380Z,98536.05
2023-01-29T00:42:58.041Z,98536.65
2023-01-29T00:46:01.155Z,98539.55
2023-01-29T00:49:06.072Z,98543.11
2023-01-29T00:52:24.259Z,98544.70
2023-01-29T00:55:27.345Z,98546.77
2023-01-29T00:58:34.293Z,98551.64
2023-01-29T01:01:55.718Z,98550.02
2023-01-29T01:04:59.075Z,98548.40
2023-01-29T01:08:02.154Z,98556.36
2023-01-29T01:11:06.938Z,98554.33
2023-01-29T01:14:09.834Z,98552.49
2023-01-29T01:17:12.809Z,98556.55
2023-01-29T01:20:16.182Z,98551.11
2023-01-29T01:23:20.257Z,98558.80
2023-01-29T01:26:23.346Z,98563.41
2023-01-29T01:29:26.257Z,98563.52
2023-01-29T01:32:29.216Z,98566.63
2023-01-29T01:35:32.110Z,98559.33
2023-01-29T01:38:36.490Z,98560.05
2023-01-29T01:41:39.419Z,98562.64
2023-01-29T01:44:58.812Z,98564.73
2023-01-29T01:48:09.143Z,98569.80
2023-01-29T01:51:12.448Z,98573.31
2023-01-29T01:54:21.366Z,98573.81
2023-01-29T01:57:26.439Z,98577.59
2023-01-29T02:00:29.467Z,98580.89
2023-01-29T02:03:56.407Z,98575.02
2023-01-29T02:07:21.612Z,98570.41
2023-01-29T02:10:24.762Z,98568.75
2023-01-29T02:13:27.694Z,98566.84
2023-01-29T02:16:30.911Z,98564.73
2023-01-29T02:19:52.698Z,98559.14
2023-01-29T02:22:56.325Z,98553.84
2023-01-29T02:26:20.720Z,98545.45
2023-01-29T02:29:28.937Z,98539.77
2023-01-29T02:32:54.455Z,98525.38
2023-01-29T02:36:13.334Z,98517.66
2023-01-29T02:39:34.219Z,98519.02
2023-01-29T02:43:02.313Z,98518.17
2023-01-29T02:46:17.704Z,98512.23
2023-01-29T02:49:47.355Z,98514.90
2023-01-29T02:53:06.491Z,98514.77
2023-01-29T02:56:37.142Z,98514.56
2023-01-29T02:59:46.329Z,98516.95
2023-01-29T03:02:59.435Z,98509.09
2023-01-29T03:06:07.716Z,98515.17
2023-01-29T03:09:24.682Z,98516.54
2023-01-29T03:12:36.929Z,98522.73
2023-01-29T03:15:47.483Z,98527.88
2023-01-29T03:18:57.089Z,98532.89
2023-01-29T03:22:04.334Z,98538.65
2023-01-29T03:25:28.839Z,98547.73
2023-01-29T03:28:51.935Z,98556.27
2023-01-29T03:32:08.546Z,98557.17
2023-01-29T03:35:21.102Z,98555.58
2023-01-29T03:38:29.698Z,98557.23
2023-01-29T03:41:38.080Z,98561.48
2023-01-29T03:45:12.410Z,98565.63
2023-01-29T03:48:40.189Z,98565.94
2023-01-29T03:51:55.823Z,98566.93
2023-01-29T03:55:20.542Z,98562.80
2023-01-29T03:58:29.789Z,98562.48
2023-01-29T04:01:41.965Z,98561.75
2023-01-29T04:04:50.278Z,98560.18
2023-01-29T04:08:00.887Z,98562.34
2023-01-29T04:11:12.084Z,98554.13
2023-01-29T04:14:15.559Z,98549.27
2023-01-29T04:17:23.786Z,98544.97
2023-01-29T04:20:27.091Z,98542.34
2023-01-29T04:23:29.927Z,98533.39
2023-01-29T04:26:58.176Z,98524.89
2023-01-29T04:30:05.493Z,98527.01
2023-01-29T04:33:21.911Z,98524.55
2023-01-29T04:36:49.435Z,98528.84
2023-01-29T04:40:04.415Z,98528.33
2023-01-29T04:43:14.435Z,98521.58
2023-01-29T04:46:23.493Z,98516.27
2023-01-29T04:49:38.576Z,98513.35
2023-01-29T04:53:04.518Z,98507.34
2023-01-29T04:56:21.726Z,98505.36
2023-01-29T04:59:36.215Z,98497.29
2023-01-29T05:02:41.717Z,98488.58
2023-01-29T05:05:48.214Z,98486.59
2023-01-29T05:08:51.774Z,98476.84
2023-01-29T05:11:56.015Z,98473.84
2023-01-29T05:15:02.163Z,98468.33
2023-01-29T05:18:09.232Z,98458.30
2023-01-29T05:21:12.320Z,98453.23
2023-01-29T05:24:21.895Z,98459.08
2023-01-29T05:27:53.275Z,98459.41
2023-01-29T05:30:57.438Z,98463.55
2023-01-29T05:34:00.404Z,98471.48
2023-01-29T05:37:03.326Z,98474.88
2023-01-29T05:40:08.895Z,98475.00
2023-01-29T05:43:23.910Z,98476.48
2023-01-29T05:46:26.829Z,98485.09
2023-01-29T05:49:29.737Z,98491.04
2023-01-29T05:52:32.761Z,98491.23
2023-01-29T05:55:35.732Z,98492.88
2023-01-29T05:58:38.801Z,98500.00
2023-01-29T06:01:41.940Z,98498.38
2023-01-29T06:04:44.872Z,98494.85
2023-01-29T06:07:47.839Z,98484.65
2023-01-29T06:10:50.708Z,98489.98
2023-01-29T06:13:53.933Z,98492.10
2023-01-29T06:16:56.809Z,98499.48
2023-01-29T06:19:59.703Z,98501.27
2023-01-29T06:23:02.829Z,98504.25
2023-01-29T06:26:08.094Z,98509.56
2023-01-29T06:29:10.998Z,98513.23
2023-01-29T06:32:14.041Z,98510.77
2023-01-29T06:35:16.985Z,98506.04
2023-01-29T06:38:19.927Z,98508.73
2023-01-29T06:41:25.584Z,98511.36
2023-01-29T06:44:28.915Z,98511.96
2023-01-29T06:47:31.961Z,98516.87
2023-01-29T06:50:34.905Z,98525.14
2023-01-29T06:53:38.979Z,98522.91
2023-01-29T06:56:41.912Z,98527.02
2023-01-29T06:59:44.887Z,98524.54
2023-01-29T07:02:51.044Z,98527.28
2023-01-29T07:05:53.947Z,98526.50
2023-01-29T07:08:56.988Z,98522.39
2023-01-29T07:11:59.831Z,98525.56
2023-01-29T07:15:02.877Z,98530.64
2023-01-29T07:18:12.254Z,98527.16
2023-01-29T07:21:15.396Z,98530.29
2023-01-29T07:24:19.260Z,98531.98
2023-01-29T07:27:22.197Z,98533.55
2023-01-29T07:30:25.123Z,98540.48
2023-01-29T07:33:28.037Z,98536.05
2023-01-29T07:36:31.046Z,98536.36
2023-01-29T07:39:34.020Z,98536.77
2023-01-29T07:42:42.276Z,98535.75
2023-01-29T07:45:45.276Z,98533.29
2023-01-29T07:48:48.194Z,98534.10
2023-01-29T07:51:51.082Z,98537.28
2023-01-29T07:54:54.201Z,98537.39
2023-01-29T07:58:02.301Z,98536.92
2023-01-29T08:01:07.778Z,98541.03
2023-01-29T08:04:10.911Z,98546.05
2023-01-29T08:07:14.077Z,98549.05
2023-01-29T08:10:17.573Z,98552.48
2023-01-29T08:13:20.827Z,98547.77
2023-01-29T08:16:23.839Z,98547.23
2023-01-29T08:19:26.722Z,98549.74
2023-01-29T08:22:29.586Z,98556.55
2023-01-29T08:25:33.308Z,98559.52
2023-01-29T08:28:38.716Z,98564.04
2023-01-29T08:31:41.708Z,98576.91
2023-01-29T08:34:44.660Z,98578.67
2023-01-29T08:37:59.535Z,98585.50
2023-01-29T08:41:02.585Z,98581.52
2023-01-29T08:44:05.715Z,98573.58
2023-01-29T08:47:08.612Z,98571.10
2023-01-29T08:50:11.839Z,98571.76
2023-01-29T08:53:14.716Z,98575.27
2023-01-29T08:56:17.671Z,98573.34
2023-01-29T08:59:22.965Z,98575.16
2023-01-29T09:02:25.901Z,98572.88
2023-01-29T09:05:29.267Z,98575.78
2023-01-29T09:08:32.099Z,98580.50
2023-01-29T09:11:34.926Z,98585.29
2023-01-29T09:14:37.778Z,98587.08
2023-01-29T09:17:41.221Z,98586.60
2023-01-29T09:20:44.083Z,98582.38
2023-01-29T09:23:46.982Z,98580.98
2023-01-29T09:26:49.966Z,98576.05
2023-01-29T09:29:52.870Z,98577.10
2023-01-29T09:32:55.766Z,98572.30
2023-01-29T09:35:58.634Z,98566.10
2023-01-29T09:39:01.504Z,98556.60
2023-01-29T09:42:20.976Z,98547.41
2023-01-29T09:45:26.772Z,98531.94
2023-01-29T09:48:33.680Z,98531.84
2023-01-29T09:51:48.018Z,98528.52
2023-01-29T09:55:00.238Z,98525.73
2023-01-29T09:58:12.189Z,98524.22
2023-01-29T10:01:40.818Z,98533.72
2023-01-29T10:05:11.037Z,98541.65
2023-01-29T10:08:29.069Z,98542.30
2023-01-29T10:11:58.101Z,98539.98
2023-01-29T10:15:25.189Z,98528.83
2023-01-29T10:18:49.147Z,98520.77
2023-01-29T10:22:29.592Z,98520.52
2023-01-29T10:25:36.877Z,98512.59
2023-01-29T10:28:47.711Z,98510.16
2023-01-29T10:31:57.022Z,98500.34
2023-01-29T10:35:22.092Z,98482.32
2023-01-29T10:38:38.531Z,98482.55
2023-01-29T10:41:47.584Z,98478.69
2023-01-29T10:45:00.794Z,98469.77
2023-01-29T10:48:44.245Z,98467.30
2023-01-29T10:52:05.600Z,98452.11
2023-01-29T10:55:27.522Z,98437.77
2023-01-29T10:58:34.342Z,98435.83
2023-01-29T11:01:37.347Z,98434.61
2023-01-29T11:04:40.433Z,98430.17
2023-01-29T11:07:43.795Z,98423.03
2023-01-29T11:10:55.219Z,98411.82
2023-01-29T11:14:07.168Z,98408.06
2023-01-29T11:17:22.984Z,98400.40
2023-01-29T11:20:28.088Z,98396.10
2023-01-29T11:23:33.339Z,98396.74
2023-01-29T11:26:40.735Z,98390.44
2023-01-29T11:29:46.285Z,98383.82
2023-01-29T11:32:56.912Z,98375.54
2023-01-29T11:36:01.067Z,98370.22
2023-01-29T11:39:20.776Z,98369.98
2023-01-29T11:42:24.018Z,98366.55
2023-01-29T11:45:32.359Z,98360.48
2023-01-29T11:48:50.339Z,98354.13
2023-01-29T11:51:56.291Z,98345.70
2023-01-29T11:55:03.841Z,98337.72
2023-01-29T11:58:12.628Z,98328.59
2023-01-29T12:01:19.242Z,98327.73
2023-01-29T12:04:26.245Z,98323.62
2023-01-29T12:07:30.642Z,98323.91
2023-01-29T12:10:39.114Z,98329.17
2023-01-29T12:13:45.723Z,98334.08
2023-01-29T12:16:54.576Z,98335.30
2023-01-29T12:20:06.842Z,98336.53
2023-01-29T12:23:42.109Z,98333.48
2023-01-29T12:26:52.036Z,98330.21
2023-01-29T12:30:17.859Z,98320.48
2023-01-29T12:33:20.838Z,98326.73
2023-01-29T12:36:47.227Z,98326.13
2023-01-29T12:39:52.171Z,98325.22
2023-01-29T12:43:02.808Z,98326.95
2023-01-29T12:46:14.436Z,98325.14
2023-01-29T12:49:33.313Z,98321.67
2023-01-29T12:52:47.686Z,98320.04
2023-01-29T12:56:00.105Z,98313.80
2023-01-29T12:59:09.871Z,98307.20
2023-01-29T13:02:27.334Z,98307.55
2023-01-29T13:05:36.305Z,98310.06
2023-01-29T13:08:45.341Z,98307.78
2023-01-29T13:12:00.744Z,98306.63
2023-01-29T13:15:29.393Z,98305.21
2023-01-29T13:18:54.113Z,98307.22
2023-01-29T13:22:01.304Z,98302.46
2023-01-29T13:25:05.772Z,98304.11
2023-01-29T13:28:18.909Z,98300.75
2023-01-29T13:31:31.853Z,98298.62
2023-01-29T13:34:43.637Z,98292.91
2023-01-29T13:37:53.947Z,98292.47
2023-01-29T13:41:03.223Z,98282.71
2023-01-29T13:44:09.642Z,98279.82
2023-01-29T13:47:22.402Z,98278.52
2023-01-29T13:50:35.037Z,98276.86
2023-01-29T13:53:40.381Z,98278.79
2023-01-29T13:56:49.994Z,98278.08
2023-01-29T13:59:55.427Z,98277.68
2023-01-29T14:03:13.459Z,98285.61
2023-01-29T14:06:41.940Z,98284.65
2023-01-29T14:09:44.784Z,98279.52
2023-01-29T14:12:49.949Z,98279.96
2023-01-29T14:15:58.834Z,98276.11
2023-01-29T14:19:04.360Z,98267.75
2023-01-29T14:22:07.344Z,98263.39
2023-01-29T14:25:19.518Z,98263.25
2023-01-29T14:28:52.524Z,98266.02
2023-01-29T14:32:00.939Z,98265.94
2023-01-29T14:35:18.160Z,98266.61
2023-01-29T14:38:24.992Z,98254.17
2023-01-29T14:41:34.240Z,98246.71
2023-01-29T14:44:47.170Z,98249.70
2023-01-29T14:47:50.029Z,98248.56
2023-01-29T14:50:59.275Z,98246.04
2023-01-29T14:54:12.124Z,98241.14
2023-01-29T14:57:18.204Z,98244.09
2023-01-29T15:00:29.372Z,98251.95
2023-01-29T15:03:52.638Z,98256.08
2023-01-29T15:07:11.421Z,98255.05
2023-01-29T15:10:23.475Z,98255.86
2023-01-29T15:13:53.988Z,98260.02
2023-01-29T15:17:09.610Z,98260.63
2023-01-29T15:20:41.656Z,98253.25
2023-01-29T15:23:46.022Z,98244.02
2023-01-29T15:26:49.095Z,98248.54
2023-01-29T15:30:02.368Z,98245.45
2023-01-29T15:33:10.605Z,98239.73
2023-01-29T15:36:30.802Z,98243.06
2023-01-29T15:39:43.851Z,98240.55
2023-01-29T15:42:48.836Z,98229.47
2023-01-29T15:45:53.922Z,98225.63
2023-01-29T15:48:59.892Z,98228.46
2023-01-29T15:52:07.224Z,98234.43
2023-01-29T15:55:23.462Z,98232.36
2023-01-29T15:58:32.419Z,98220.87
2023-01-29T16:01:35.655Z,98213.45
2023-01-29T16:04:38.813Z,98211.79
2023-01-29T16:07:42.712Z,98202.25
2023-01-29T16:10:53.865Z,98220.92
2023-01-29T16:13:57.643Z,98218.27
2023-01-29T16:17:27.712Z,98212.23
2023-01-29T16:20:45.239Z,98200.60
2023-01-29T16:23:56.996Z,98200.81
2023-01-29T16:27:06.515Z,98196.42
2023-01-29T16:30:14.689Z,98204.80
2023-01-29T16:33:18.011Z,98202.95
2023-01-29T16:36:24.746Z,98206.39
2023-01-29T16:39:34.999Z,98210.77
2023-01-29T16:42:38.660Z,98219.29
2023-01-29T16:45:41.716Z,98223.27
2023-01-29T16:48:44.803Z,98217.27
2023-01-29T16:51:47.860Z,98212.13
2023-01-29T16:54:58.601Z,98207.52
2023-01-29T16:58:13.211Z,98207.55
2023-01-29T17:01:17.370Z,98207.95
2023-01-29T17:04:21.221Z,98211.75
2023-01-29T17:07:25.770Z,98206.52
2023-01-29T17:10:31.194Z,98204.55
2023-01-29T17:13:45.499Z,98202.17
2023-01-29T17:17:15.715Z,98202.83
2023-01-29T17:20:18.880Z,98200.02
2023-01-29T17:23:22.769Z,98194.27
2023-01-29T17:26:26.067Z,98193.98
2023-01-29T17:29:31.555Z,98196.42
2023-01-29T17:32:44.128Z,98195.48
2023-01-29T17:35:51.722Z,98201.77
2023-01-29T17:38:55.082Z,98201.91
2023-01-29T17:41:59.299Z,98208.26
2023-01-29T17:45:02.370Z,98211.30
2023-01-29T17:48:11.883Z,98209.43
2023-01-29T17:51:17.478Z,98206.83
2023-01-29T17:54:21.791Z,98206.34
2023-01-29T17:57:25.805Z,98202.18
2023-01-29T18:00:30.116Z,98202.91
2023-01-29T18:03:33.351Z,98185.59
2023-01-29T18:06:37.208Z,98188.08
2023-01-29T18:09:43.277Z,98181.17
2023-01-29T18:12:46.953Z,98182.59
2023-01-29T18:15:50.901Z,98169.30
2023-01-29T18:18:54.049Z,98166.46
2023-01-29T18:21:57.301Z,98167.48
2023-01-29T18:25:00.243Z,98173.55
2023-01-29T18:28:05.518Z,98170.83
2023-01-29T18:31:09.789Z,98170.02
2023-01-29T18:34:13.557Z,98173.70
2023-01-29T18:37:17.108Z,98178.56
2023-01-29T18:40:20.517Z,98180.41
2023-01-29T18:43:26.234Z,98188.52
2023-01-29T18:46:30.904Z,98194.80
2023-01-29T18:49:34.343Z,98198.38
2023-01-29T18:52:37.834Z,98195.60
2023-01-29T18:55:42.404Z,98185.81
2023-01-29T18:58:52.143Z,98178.31
2023-01-29T19:01:58.561Z,98177.58
2023-01-29T19:05:02.184Z,98172.95
2023-01-29T19:08:05.966Z,98168.27
2023-01-29T19:11:12.529Z,98165.59
2023-01-29T19:14:15.965Z,98161.73
2023-01-29T19:17:19.031Z,98163.05
2023-01-29T19:20:22.557Z,98163.27
2023-01-29T19:23:25.725Z,98157.63
2023-01-29T19:26:29.095Z,98155.31
2023-01-29T19:29:32.995Z,98154.71
2023-01-29T19:32:36.065Z,98148.21
2023-01-29T19:35:39.165Z,98142.44
2023-01-29T19:38:42.433Z,98139.33
2023-01-29T19:41:45.373Z,98127.84
2023-01-29T19:44:49.152Z,98122.70
2023-01-29T19:47:54.430Z,98120.08
2023-01-29T19:51:10.522Z,98113.02
2023-01-29T19:54:13.560Z,98107.40
2023-01-29T19:57:16.443Z,98096.88
2023-01-29T20:00:21.694Z,98098.56
2023-01-29T20:03:25.856Z,98105.17
2023-01-29T20:06:32.827Z,98104.15
2023-01-29T20:09:35.797Z,98105.73
2023-01-29T20:12:38.795Z,98101.39
2023-01-29T20:15:49.778Z,98100.41
2023-01-29T20:18:53.146Z,98092.70
2023-01-29T20:21:56.340Z,98089.04
2023-01-29T20:24:59.753Z,98076.34
2023-01-29T20:28:03.404Z,98074.99
2023-01-29T20:31:08.086Z,98077.40
2023-01-29T20:34:11.377Z,98072.27
2023-01-29T20:37:14.389Z,98066.64
2023-01-29T20:40:18.657Z,98062.89
2023-01-29T20:43:22.225Z,98054.55
2023-01-29T20:46:27.483Z,98053.59
2023-01-29T20:49:30.535Z,98052.91
2023-01-29T20:52:33.839Z,98047.02
2023-01-29T20:55:37.315Z,98051.15
2023-01-29T20:58:43.946Z,98050.33
2023-01-29T21:01:47.152Z,98050.42
2023-01-29T21:04:50.180Z,98048.15
2023-01-29T21:07:53.056Z,98044.79
2023-01-29T21:10:56.271Z,98041.31
2023-01-29T21:13:59.357Z,98043.64
2023-01-29T21:17:02.899Z,98047.12
2023-01-29T21:20:08.401Z,98048.10
2023-01-29T21:23:11.920Z,98050.92
2023-01-29T21:26:14.863Z,98049.71
2023-01-29T21:29:17.942Z,98040.17
2023-01-29T21:32:21.082Z,98036.71
2023-01-29T21:35:23.974Z,98024.56
2023-01-29T21:38:27.638Z,98018.89
2023-01-29T21:41:50.859Z,98008.03
2023-01-29T21:44:53.805Z,98000.40
2023-01-29T21:47:56.821Z,97995.14
2023-01-29T21:50:59.914Z,97993.11
2023-01-29T21:54:03.595Z,97983.38
2023-01-29T21:57:11.169Z,97979.30
2023-01-29T22:00:14.578Z,97974.36
2023-01-29T22:03:17.702Z,97970.25
2023-01-29T22:06:20.958Z,97960.80
2023-01-29T22:09:24.017Z,97957.02
2023-01-29T22:12:27.568Z,97947.95
2023-01-29T22:15:30.504Z,97943.98
2023-01-29T22:18:34.120Z,97935.37
2023-01-29T22:21:37.093Z,97928.55
2023-01-29T22:24:40.142Z,97920.19
2023-01-29T22:27:42.968Z,97920.77
2023-01-29T22:30:46.471Z,97916.42
2023-01-29T22:33:49.465Z,97912.79
2023-01-29T22:36:52.896Z,97912.89
2023-01-29T22:39:55.778Z,97912.02
2023-01-29T22:42:58.830Z,97907.04
2023-01-29T22:46:02.053Z,97903.55
2023-01-29T22:49:05.242Z,97898.89
2023-01-29T22:52:11.420Z,97901.09
2023-01-29T22:55:14.273Z,97899.64
2023-01-29T22:58:17.496Z,97890.90
2023-01-29T23:01:22.097Z,97892.39
2023-01-29T23:04:25.177Z,97893.30
2023-01-29T23:07:28.087Z,97892.59
2023-01-29T23:10:30.984Z,97886.20
2023-01-29T23:13:34.035Z,97884.19
2023-01-29T23:16:36.908Z,97879.70
2023-01-29T23:19:39.792Z,97875.95
2023-01-29T23:22:42.828Z,97875.02
2023-01-29T23:26:04.424Z,97873.44
2023-01-29T23:29:07.419Z,97870.14
2023-01-29T23:32:11.812Z,97868.84
2023-01-29T23:35:14.623Z,97859.30
2023-01-29T23:38:17.537Z,97849.93
2023-01-29T23:41:21.402Z,97836.20
2023-01-29T23:44:24.380Z,97824.95
2023-01-29T23:47:27.319Z,97811.79
2023-01-29T23:50:30.122Z,97804.03
2023-01-29T23:53:33.036Z,97798.83
2023-01-29T23:56:35.893Z,97794.60
2023-01-29T23:59:38.904Z,97786.41
